Time;durP1;ratioP1;P1;durP2;ratioP2;P2;SDS_P1;SDS_P2;PMS_P1;PMS_P2;Temp;Humidity;BMP_temperature;BMP_pressure;BME280_temperature;BME280_humidity;BME280_pressure;Samples;Min_cycle;Max_cycle;Signal;HPM_P1;HPM_P2
2022/05/29 00:00:20;;;;;;;4.35;1.27;;;16.30;95.50;;;;;;7395885;19;20134;-73
2022/05/29 00:02:48;;;;;;;1.70;1.00;;;16.30;95.70;;;;;;7396321;19;20146;-79
2022/05/29 00:05:14;;;;;;;2.30;1.25;;;16.20;95.80;;;;;;7392287;19;20143;-74
2022/05/29 00:07:41;;;;;;;3.13;1.55;;;16.40;95.70;;;;;;7395996;19;20138;-78
2022/05/29 00:10:10;;;;;;;1.45;1.05;;;16.40;95.90;;;;;;7390471;19;20157;-75
2022/05/29 00:12:36;;;;;;;3.92;1.38;;;16.40;96.10;;;;;;7393164;19;20476;-75
2022/05/29 00:15:02;;;;;;;1.70;1.10;;;16.40;96.10;;;;;;7390027;19;20581;-79
2022/05/29 00:17:28;;;;;;;4.95;1.42;;;16.40;95.90;;;;;;7392138;19;20300;-76
2022/05/29 00:19:54;;;;;;;4.22;1.55;;;16.40;96.20;;;;;;7394302;19;20186;-75
2022/05/29 00:22:22;;;;;;;1.83;1.10;;;16.50;95.90;;;;;;7394059;19;20509;-77
2022/05/29 00:24:49;;;;;;;2.38;1.17;;;16.50;95.90;;;;;;7396333;19;20164;-78
2022/05/29 00:27:16;;;;;;;2.70;1.10;;;16.50;95.70;;;;;;7392866;19;20154;-78
2022/05/29 00:29:43;;;;;;;3.15;1.00;;;16.40;95.90;;;;;;7394250;19;20688;-78
2022/05/29 00:32:10;;;;;;;1.70;1.10;;;16.40;96.00;;;;;;7391016;19;20594;-78
2022/05/29 00:34:36;;;;;;;4.47;1.10;;;16.40;96.00;;;;;;7389076;19;20135;-75
2022/05/29 00:37:04;;;;;;;1.88;1.10;;;16.40;96.20;;;;;;7396151;19;20460;-74
2022/05/29 00:39:31;;;;;;;3.22;1.38;;;16.40;96.10;;;;;;7393626;19;20150;-75
2022/05/29 00:41:57;;;;;;;2.45;1.13;;;16.30;96.20;;;;;;7393405;19;20147;-77
2022/05/29 00:44:27;;;;;;;1.45;1.23;;;16.30;96.30;;;;;;7391333;19;20594;-79
2022/05/29 00:46:55;;;;;;;2.65;1.20;;;16.40;96.00;;;;;;7389895;19;20150;-74
2022/05/29 00:49:23;;;;;;;2.03;1.13;;;16.30;96.10;;;;;;7390285;19;20143;-75
2022/05/29 00:52:10;;;;;;;2.42;1.10;;;16.30;96.30;;;;;;7393359;19;20604;-78
2022/05/29 00:54:53;;;;;;;1.52;1.17;;;16.30;96.20;;;;;;7395688;19;20202;-75
2022/05/29 00:57:32;;;;;;;1.80;1.20;;;16.20;96.40;;;;;;7390876;19;20155;-77
2022/05/29 01:00:03;;;;;;;1.05;0.95;;;16.10;96.60;;;;;;7394191;19;20231;-78
2022/05/29 01:02:28;;;;;;;2.47;1.20;;;16.10;96.40;;;;;;7393224;19;20135;-75
2022/05/29 01:04:56;;;;;;;3.03;1.30;;;16.20;96.40;;;;;;7389055;19;20162;-75
2022/05/29 01:07:23;;;;;;;2.13;1.20;;;16.10;96.40;;;;;;7389337;19;20166;-78
2022/05/29 01:09:50;;;;;;;3.17;1.35;;;16.00;96.80;;;;;;7389234;19;20190;-74
2022/05/29 01:12:48;;;;;;;2.85;1.27;;;16.00;96.80;;;;;;7393163;19;20143;-74
2022/05/29 01:15:33;;;;;;;2.13;1.10;;;16.00;97.00;;;;;;7387980;19;20139;-78
2022/05/29 01:18:07;;;;;;;3.15;1.30;;;16.00;96.80;;;;;;7393009;19;20150;-77
2022/05/29 01:20:55;;;;;;;2.90;1.15;;;16.00;96.80;;;;;;7394628;19;20499;-74
2022/05/29 01:24:01;;;;;;;2.75;0.88;;;16.00;96.70;;;;;;7392061;19;20468;-78
2022/05/29 01:26:29;;;;;;;3.13;1.42;;;16.00;96.70;;;;;;7389842;19;20262;-77
2022/05/29 01:28:56;;;;;;;2.03;1.25;;;15.90;96.90;;;;;;7390128;19;20131;-77
2022/05/29 01:31:52;;;;;;;3.75;1.23;;;16.00;97.00;;;;;;7390831;19;20138;-74
2022/05/29 01:34:46;;;;;;;1.33;1.20;;;16.00;97.10;;;;;;7394444;19;20134;-79
2022/05/29 01:37:21;;;;;;;3.13;1.08;;;16.00;97.30;;;;;;7395156;19;20200;-75
2022/05/29 01:40:01;;;;;;;2.47;1.10;;;15.90;97.30;;;;;;7388395;19;20163;-75
2022/05/29 01:42:49;;;;;;;2.70;1.08;;;15.90;97.50;;;;;;7394897;19;20138;-78
2022/05/29 01:45:34;;;;;;;2.65;1.10;;;15.80;97.70;;;;;;7392547;19;20247;-78
2022/05/29 01:48:14;;;;;;;2.13;1.00;;;15.80;97.50;;;;;;7393109;19;20135;-78
2022/05/29 01:51:23;;;;;;;2.53;1.65;;;15.80;97.60;;;;;;7392990;19;20145;-77
2022/05/29 01:54:03;;;;;;;2.95;1.45;;;15.60;97.60;;;;;;7390504;19;20450;-74
2022/05/29 01:56:36;;;;;;;1.88;1.02;;;15.80;97.20;;;;;;7389909;19;20142;-75
2022/05/29 01:59:11;;;;;;;3.35;1.08;;;15.80;96.60;;;;;;7390375;19;20172;-75
2022/05/29 02:01:46;;;;;;;1.15;0.93;;;15.80;96.30;;;;;;7391113;19;20882;-78
2022/05/29 02:04:17;;;;;;;1.33;1.00;;;15.80;96.30;;;;;;7392589;19;20640;-77
2022/05/29 02:09:40;;;;;;;2.00;0.95;;;15.80;96.20;;;;;;7389195;19;20159;-77
2022/05/29 02:12:10;;;;;;;3.00;1.10;;;15.80;95.70;;;;;;7391615;19;20166;-77
2022/05/29 02:14:40;;;;;;;1.40;0.83;;;15.70;95.80;;;;;;7391210;19;20147;-78
2022/05/29 02:17:21;;;;;;;1.70;0.82;;;15.80;95.80;;;;;;7386304;19;20207;-77
2022/05/29 02:19:58;;;;;;;2.70;1.08;;;15.80;95.30;;;;;;7390546;19;20154;-78
2022/05/29 02:22:27;;;;;;;2.30;0.85;;;15.70;95.00;;;;;;7391138;19;20146;-75
2022/05/29 02:25:10;;;;;;;2.72;0.93;;;15.70;95.10;;;;;;7391888;19;20154;-75
2022/05/29 02:27:52;;;;;;;1.83;0.90;;;15.70;95.10;;;;;;7393462;19;20473;-77
2022/05/29 02:30:20;;;;;;;1.27;0.85;;;15.70;95.10;;;;;;7389293;19;20139;-75
2022/05/29 02:33:03;;;;;;;1.20;0.70;;;15.40;95.80;;;;;;7389652;19;20219;-75
2022/05/29 02:36:19;;;;;;;1.48;0.80;;;15.50;95.80;;;;;;7392879;19;20142;-78
2022/05/29 02:38:57;;;;;;;1.95;0.90;;;15.60;95.50;;;;;;7388752;19;20581;-78
2022/05/29 02:41:43;;;;;;;1.52;1.05;;;15.70;95.30;;;;;;7388672;19;20134;-75
2022/05/29 02:44:47;;;;;;;1.80;0.90;;;15.90;95.20;;;;;;7389738;19;20222;-76
2022/05/29 02:47:50;;;;;;;1.38;0.80;;;15.80;95.00;;;;;;7388968;19;20155;-79
2022/05/29 02:50:39;;;;;;;3.33;1.00;;;15.70;95.00;;;;;;7392794;19;20145;-75
2022/05/29 02:53:12;;;;;;;2.45;1.60;;;15.70;95.30;;;;;;7390137;19;20154;-75
2022/05/29 02:55:40;;;;;;;1.65;0.82;;;15.60;95.20;;;;;;7390540;19;20146;-76
2022/05/29 02:58:19;;;;;;;3.25;1.02;;;15.70;95.20;;;;;;7388772;19;20142;-74
2022/05/29 03:01:12;;;;;;;2.47;0.90;;;15.70;95.70;;;;;;7387884;19;20147;-78
2022/05/29 03:03:56;;;;;;;2.03;1.30;;;15.60;96.30;;;;;;7383707;19;20150;-74
2022/05/29 03:06:37;;;;;;;2.20;0.77;;;15.40;96.90;;;;;;7389349;19;20622;-77
2022/05/29 03:09:32;;;;;;;3.90;1.17;;;15.30;97.20;;;;;;7388898;19;20150;-76
2022/05/29 03:11:58;;;;;;;1.27;0.90;;;15.30;97.40;;;;;;7385566;19;20153;-78
2022/05/29 03:14:42;;;;;;;3.67;1.33;;;15.30;97.60;;;;;;7386567;19;20142;-78
2022/05/29 03:17:11;;;;;;;1.75;0.85;;;15.30;97.70;;;;;;7384341;19;20174;-78
2022/05/29 03:19:56;;;;;;;1.98;0.90;;;15.20;97.70;;;;;;7388237;19;20127;-77
2022/05/29 03:22:27;;;;;;;2.85;1.10;;;15.30;97.60;;;;;;7388870;19;20198;-79
2022/05/29 03:25:10;;;;;;;1.40;1.00;;;15.20;97.80;;;;;;7391320;19;20138;-75
2022/05/29 03:27:47;;;;;;;1.95;1.05;;;15.30;97.60;;;;;;7390466;19;20135;-78
2022/05/29 03:30:28;;;;;;;1.48;1.00;;;15.40;97.70;;;;;;7387583;19;20142;-77
2022/05/29 03:32:58;;;;;;;1.95;0.90;;;15.30;97.70;;;;;;7390228;19;20162;-76
2022/05/29 03:35:46;;;;;;;2.53;1.15;;;15.30;97.70;;;;;;7385402;19;20650;-75
2022/05/29 03:38:12;;;;;;;1.80;1.20;;;15.10;98.20;;;;;;7386091;19;20255;-78
2022/05/29 03:40:39;;;;;;;3.63;1.10;;;15.10;97.80;;;;;;7388840;19;20131;-76
2022/05/29 03:43:05;;;;;;;4.57;1.00;;;15.20;97.80;;;;;;7386210;19;20614;-75
2022/05/29 03:45:31;;;;;;;1.52;0.88;;;15.20;97.70;;;;;;7393220;19;20135;-79
2022/05/29 03:47:57;;;;;;;2.40;1.25;;;15.20;97.80;;;;;;7396242;19;20625;-77
2022/05/29 03:50:24;;;;;;;2.88;0.90;;;15.10;97.60;;;;;;7396389;19;20130;-75
2022/05/29 03:52:51;;;;;;;2.55;1.00;;;15.00;97.50;;;;;;7396513;19;20134;-75
2022/05/29 03:55:20;;;;;;;3.05;1.20;;;15.10;97.70;;;;;;7394799;19;20146;-75
2022/05/29 03:57:47;;;;;;;2.75;1.25;;;15.10;97.80;;;;;;7395499;19;20127;-78
2022/05/29 04:00:14;;;;;;;1.45;1.20;;;15.10;97.80;;;;;;7394155;19;20141;-76
2022/05/29 04:02:40;;;;;;;3.08;1.17;;;15.00;98.10;;;;;;7397060;19;20167;-78
2022/05/29 04:05:08;;;;;;;2.92;1.50;;;14.80;98.90;;;;;;7399004;19;20469;-77
2022/05/29 04:13:03;;;;;;;2.67;1.13;;;14.80;99.40;;;;;;7394804;19;20134;-75
2022/05/29 04:15:29;;;;;;;2.80;1.05;;;14.80;99.50;;;;;;7397706;19;20127;-78
2022/05/29 04:17:54;;;;;;;2.93;1.17;;;14.80;99.20;;;;;;7388292;19;20541;-76
2022/05/29 04:20:21;;;;;;;3.38;1.23;;;14.80;99.20;;;;;;7390897;19;20134;-78
2022/05/29 04:22:47;;;;;;;2.28;1.10;;;14.80;99.00;;;;;;7394695;19;20163;-78
2022/05/29 04:25:13;;;;;;;1.23;1.13;;;14.80;99.20;;;;;;7393672;19;20752;-75
2022/05/29 04:27:39;;;;;;;2.85;1.30;;;14.70;99.60;;;;;;7394783;19;20143;-75
2022/05/29 04:30:06;;;;;;;2.05;1.08;;;14.70;99.90;;;;;;7394185;19;20157;-78
2022/05/29 04:35:16;;;;;;;2.20;1.10;;;14.60;99.90;;;;;;7395274;19;20217;-77
2022/05/29 04:37:42;;;;;;;2.53;1.08;;;14.60;99.90;;;;;;7393400;19;20143;-78
2022/05/29 04:40:09;;;;;;;1.67;1.17;;;14.50;99.90;;;;;;7392012;19;20158;-78
2022/05/29 04:42:35;;;;;;;3.63;1.20;;;14.60;99.90;;;;;;7395416;19;20618;-78
2022/05/29 04:45:01;;;;;;;2.63;1.20;;;14.50;99.90;;;;;;7392862;19;20151;-75
2022/05/29 04:47:27;;;;;;;1.80;1.30;;;14.50;99.90;;;;;;7393691;19;20138;-75
2022/05/29 04:49:53;;;;;;;3.93;1.40;;;14.30;99.90;;;;;;7395191;19;20222;-80
2022/05/29 04:52:19;;;;;;;2.27;1.20;;;14.30;99.90;;;;;;7392539;19;20160;-75
2022/05/29 04:54:45;;;;;;;6.23;1.70;;;14.40;99.90;;;;;;7392013;19;20150;-78
2022/05/29 04:57:11;;;;;;;2.30;1.50;;;14.20;99.90;;;;;;7390160;19;20597;-75
2022/05/29 04:59:38;;;;;;;5.57;1.67;;;14.20;99.90;;;;;;7391336;19;20149;-78
2022/05/29 05:02:04;;;;;;;2.05;1.30;;;14.20;99.90;;;;;;7391031;19;20146;-75
2022/05/29 05:04:30;;;;;;;4.77;1.60;;;14.00;99.90;;;;;;7390773;19;20147;-79
2022/05/29 05:07:00;;;;;;;5.50;1.35;;;14.00;99.90;;;;;;7395445;19;20158;-74
2022/05/29 05:09:28;;;;;;;1.38;1.20;;;13.90;99.90;;;;;;7390398;19;20606;-80
2022/05/29 05:11:55;;;;;;;2.40;1.38;;;13.90;99.90;;;;;;7394074;19;20166;-79
2022/05/29 05:14:22;;;;;;;4.93;1.40;;;14.00;99.90;;;;;;7392674;19;20131;-74
2022/05/29 05:16:49;;;;;;;3.13;1.50;;;14.00;99.90;;;;;;7391401;19;20150;-80
2022/05/29 05:19:15;;;;;;;3.00;1.30;;;14.00;99.90;;;;;;7393019;19;20135;-75
2022/05/29 05:21:42;;;;;;;2.63;1.42;;;13.80;99.90;;;;;;7393189;19;20143;-75
2022/05/29 05:24:09;;;;;;;4.30;1.55;;;13.90;99.90;;;;;;7397013;19;20142;-74
2022/05/29 05:26:35;;;;;;;6.03;1.20;;;14.00;99.90;;;;;;7394910;19;20176;-82
2022/05/29 05:29:01;;;;;;;2.47;1.70;;;14.10;99.90;;;;;;7391466;19;20243;-78
2022/05/29 05:31:27;;;;;;;2.53;1.52;;;14.10;99.90;;;;;;7391741;19;20143;-75
2022/05/29 05:33:53;;;;;;;4.13;1.45;;;14.20;99.90;;;;;;7390530;19;20467;-81
2022/05/29 05:36:19;;;;;;;1.97;1.30;;;14.20;99.90;;;;;;7395217;19;20145;-75
2022/05/29 05:38:46;;;;;;;3.63;1.67;;;14.20;99.90;;;;;;7393612;19;20139;-80
2022/05/29 05:41:13;;;;;;;2.47;1.30;;;14.30;99.90;;;;;;7393447;19;20204;-75
2022/05/29 05:43:39;;;;;;;2.27;1.40;;;14.30;99.90;;;;;;7392289;19;20181;-75
2022/05/29 05:46:13;;;;;;;2.20;1.60;;;14.30;99.90;;;;;;7390704;19;20138;-78
2022/05/29 05:48:39;;;;;;;3.37;1.47;;;14.30;99.90;;;;;;7391934;19;20125;-77
2022/05/29 05:51:06;;;;;;;3.27;1.70;;;14.20;99.90;;;;;;7393393;19;20178;-80
2022/05/29 05:53:33;;;;;;;1.83;1.23;;;14.30;99.90;;;;;;7391181;19;20147;-75
2022/05/29 05:56:03;;;;;;;3.03;1.50;;;14.40;99.90;;;;;;7392193;19;20150;-80
2022/05/29 05:58:29;;;;;;;1.65;1.05;;;14.50;99.90;;;;;;7391549;19;20146;-75
2022/05/29 06:00:55;;;;;;;2.60;1.40;;;14.50;99.90;;;;;;7389835;19;20144;-75
2022/05/29 06:03:20;;;;;;;4.37;1.40;;;14.40;99.90;;;;;;7387592;19;20174;-80
2022/05/29 06:05:48;;;;;;;2.50;1.35;;;14.30;99.90;;;;;;7389783;19;20137;-75
2022/05/29 06:08:14;;;;;;;2.15;1.27;;;14.40;99.90;;;;;;7391144;19;20159;-75
2022/05/29 06:10:40;;;;;;;1.60;1.10;;;14.40;99.90;;;;;;7390001;19;20551;-79
2022/05/29 06:13:07;;;;;;;3.20;1.15;;;14.40;99.90;;;;;;7389050;19;20154;-78
2022/05/29 06:15:33;;;;;;;2.40;1.25;;;15.10;99.90;;;;;;7392774;19;20138;-75
2022/05/29 06:17:59;;;;;;;2.35;1.48;;;15.50;99.90;;;;;;7388112;19;20197;-74
2022/05/29 06:20:26;;;;;;;3.72;1.30;;;15.80;99.90;;;;;;7388659;19;20138;-78
2022/05/29 06:22:52;;;;;;;4.68;1.20;;;16.50;99.90;;;;;;7390818;19;20157;-78
2022/05/29 06:25:18;;;;;;;2.53;1.00;;;17.30;99.90;;;;;;7391008;19;20134;-78
2022/05/29 06:27:44;;;;;;;4.10;1.75;;;18.00;99.90;;;;;;7389963;19;20154;-78
2022/05/29 06:30:15;;;;;;;1.85;1.00;;;18.20;99.90;;;;;;7392383;19;20612;-75
2022/05/29 06:32:41;;;;;;;2.90;1.00;;;18.50;99.90;;;;;;7393404;19;20159;-75
2022/05/29 06:35:10;;;;;;;2.13;1.20;;;18.70;99.90;;;;;;7389458;19;20150;-77
2022/05/29 06:37:40;;;;;;;1.63;1.10;;;18.60;99.90;;;;;;7389409;19;20632;-75
2022/05/29 06:40:08;;;;;;;2.50;1.40;;;18.40;99.90;;;;;;7385393;19;20148;-75
2022/05/29 06:42:34;;;;;;;2.85;1.13;;;18.40;99.90;;;;;;7390354;19;20135;-74
2022/05/29 06:45:01;;;;;;;2.42;1.10;;;18.30;99.90;;;;;;7388417;19;20787;-75
2022/05/29 06:47:26;;;;;;;2.13;1.00;;;17.70;99.90;;;;;;7392420;19;20139;-77
2022/05/29 06:49:52;;;;;;;3.13;1.27;;;16.80;99.90;;;;;;7388650;19;20176;-75
2022/05/29 06:52:18;;;;;;;2.53;1.10;;;16.20;99.90;;;;;;7388524;19;20143;-75
2022/05/29 06:54:45;;;;;;;1.58;1.10;;;15.90;99.90;;;;;;7387505;19;20149;-76
2022/05/29 06:57:12;;;;;;;3.45;1.23;;;15.70;99.90;;;;;;7388024;19;20819;-78
2022/05/29 07:08:00;;;;;;;1.92;0.90;;;16.20;99.90;;;;;;7389676;19;20139;-75
2022/05/29 07:10:29;;;;;;;2.38;1.05;;;16.30;99.90;;;;;;7389591;19;20229;-74
2022/05/29 07:12:56;;;;;;;2.95;1.23;;;16.00;99.90;;;;;;7390320;19;20158;-72
2022/05/29 07:15:22;;;;;;;2.58;1.20;;;15.90;99.90;;;;;;7390619;19;20135;-74
2022/05/29 07:17:48;;;;;;;1.83;1.00;;;15.80;99.90;;;;;;7386562;19;20226;-73
2022/05/29 07:20:16;;;;;;;3.20;1.10;;;15.70;99.90;;;;;;7385294;19;20154;-73
2022/05/29 07:22:43;;;;;;;2.45;1.13;;;15.70;99.90;;;;;;7394137;19;20139;-73
2022/05/29 07:25:11;;;;;;;3.58;1.13;;;15.60;99.90;;;;;;7399922;19;20158;-74
2022/05/29 07:27:38;;;;;;;1.67;0.90;;;15.70;99.90;;;;;;7392989;19;20509;-76
2022/05/29 07:30:05;;;;;;;2.05;1.33;;;15.50;99.90;;;;;;7395677;19;20146;-74
2022/05/29 07:32:31;;;;;;;2.90;1.10;;;15.60;99.90;;;;;;7397039;19;20119;-75
2022/05/29 07:34:57;;;;;;;1.35;0.82;;;15.60;99.90;;;;;;7399793;19;20158;-78
2022/05/29 07:37:23;;;;;;;4.38;1.08;;;15.70;99.90;;;;;;7395036;19;20510;-75
2022/05/29 07:39:52;;;;;;;1.42;0.90;;;15.70;99.90;;;;;;7391854;19;20146;-74
2022/05/29 07:45:05;;;;;;;3.92;1.40;;;16.10;99.90;;;;;;7395902;19;20134;-71
2022/05/29 07:47:43;;;;;;;2.20;1.27;;;16.00;99.90;;;;;;7393121;19;20449;-73
2022/05/29 07:50:16;;;;;;;3.22;1.15;;;15.80;99.90;;;;;;7395240;19;20151;-74
2022/05/29 07:52:44;;;;;;;2.72;1.17;;;15.70;99.90;;;;;;7396513;19;20131;-75
2022/05/29 07:55:11;;;;;;;3.08;1.08;;;15.80;99.90;;;;;;7395940;19;20131;-75
2022/05/29 07:57:37;;;;;;;0.98;0.80;;;16.20;99.90;;;;;;7391595;19;20154;-73
2022/05/29 08:00:08;;;;;;;2.70;1.10;;;16.90;99.90;;;;;;7391080;19;20127;-73
2022/05/29 08:02:34;;;;;;;4.45;1.13;;;17.70;99.90;;;;;;7390636;19;20131;-75
2022/05/29 08:05:02;;;;;;;2.20;1.27;;;18.00;99.90;;;;;;7389011;19;20181;-76
2022/05/29 08:07:28;;;;;;;2.35;1.08;;;17.70;99.90;;;;;;7393614;19;20173;-76
2022/05/29 08:09:55;;;;;;;3.95;1.00;;;17.50;99.90;;;;;;7392844;19;20135;-76
2022/05/29 08:12:21;;;;;;;5.20;1.17;;;16.70;99.90;;;;;;7394077;19;20241;-75
2022/05/29 08:14:47;;;;;;;1.90;1.10;;;16.40;99.90;;;;;;7392868;19;20463;-73
2022/05/29 08:17:13;;;;;;;5.05;1.15;;;16.30;99.90;;;;;;7393704;19;20170;-74
2022/05/29 08:19:39;;;;;;;2.00;1.00;;;16.40;99.90;;;;;;7394561;19;20123;-72
2022/05/29 08:22:05;;;;;;;2.72;0.90;;;16.10;99.90;;;;;;7393730;19;20672;-75
2022/05/29 08:33:01;;;;;;;1.73;1.13;;;16.10;99.90;;;;;;7388022;19;20138;-73
2022/05/29 08:35:26;;;;;;;2.65;1.20;;;17.00;99.90;;;;;;7390302;19;20648;-75
2022/05/29 08:37:53;;;;;;;2.20;1.30;;;16.90;99.90;;;;;;7388778;19;20170;-75
2022/05/29 08:40:19;;;;;;;4.85;1.52;;;16.60;99.90;;;;;;7390110;19;20777;-72
2022/05/29 08:42:46;;;;;;;4.07;1.50;;;16.30;99.90;;;;;;7393995;19;20127;-73
2022/05/29 08:45:14;;;;;;;3.88;1.30;;;16.10;99.90;;;;;;7391328;19;20135;-76
2022/05/29 08:47:45;;;;;;;3.47;1.23;;;16.10;99.90;;;;;;7392784;19;20506;-75
2022/05/29 08:50:23;;;;;;;2.17;1.02;;;16.30;99.90;;;;;;7391289;19;20153;-72
2022/05/29 08:53:04;;;;;;;4.45;1.05;;;16.30;99.90;;;;;;7393032;19;20541;-75
2022/05/29 08:55:41;;;;;;;2.45;1.27;;;16.30;99.90;;;;;;7391169;19;20496;-72
2022/05/29 08:58:21;;;;;;;4.05;1.35;;;16.20;99.90;;;;;;7386726;19;20214;-74
2022/05/29 09:00:53;;;;;;;3.38;1.30;;;16.40;99.90;;;;;;7388195;19;20126;-76
2022/05/29 09:03:37;;;;;;;3.88;1.23;;;16.10;99.90;;;;;;7388577;19;20151;-75
2022/05/29 09:06:25;;;;;;;3.40;1.02;;;15.80;99.90;;;;;;7392321;19;20142;-74
2022/05/29 09:09:07;;;;;;;4.45;1.88;;;15.90;99.90;;;;;;7391640;19;20138;-75
2022/05/29 09:11:47;;;;;;;3.13;1.13;;;16.00;99.90;;;;;;7394582;19;20142;-74
2022/05/29 09:14:24;;;;;;;2.25;0.90;;;15.80;99.90;;;;;;7395970;19;20565;-74
2022/05/29 09:17:06;;;;;;;3.78;1.30;;;16.00;99.90;;;;;;7390527;19;20676;-74
2022/05/29 09:19:41;;;;;;;2.92;1.20;;;16.20;99.90;;;;;;7391595;19;20141;-75
2022/05/29 09:22:29;;;;;;;2.90;1.20;;;16.20;99.90;;;;;;7391750;19;20138;-73
2022/05/29 09:25:17;;;;;;;3.40;1.20;;;16.30;99.90;;;;;;7390787;19;20138;-72
2022/05/29 09:27:47;;;;;;;4.80;1.38;;;16.30;99.90;;;;;;7391287;19;20146;-71
2022/05/29 09:30:14;;;;;;;2.67;1.20;;;16.40;99.90;;;;;;7389127;19;20143;-74
2022/05/29 09:33:02;;;;;;;3.40;1.20;;;16.30;99.90;;;;;;7391524;19;20175;-74
2022/05/29 09:35:43;;;;;;;2.85;1.02;;;16.40;99.90;;;;;;7391205;19;20143;-73
2022/05/29 09:38:34;;;;;;;2.92;1.20;;;16.50;99.90;;;;;;7392070;19;20143;-75
2022/05/29 09:41:06;;;;;;;2.75;1.17;;;16.40;99.90;;;;;;7388132;19;20138;-74
2022/05/29 09:43:32;;;;;;;4.85;1.63;;;16.40;99.90;;;;;;7388300;19;20570;-74
2022/05/29 09:46:21;;;;;;;3.13;1.50;;;16.30;99.90;;;;;;7387125;19;20151;-73
2022/05/29 09:51:44;;;;;;;7.22;1.50;;;16.10;99.90;;;;;;7389258;19;20138;-72
2022/05/29 09:54:22;;;;;;;1.45;1.00;;;16.00;99.90;;;;;;7387018;19;20146;-72
2022/05/29 09:56:48;;;;;;;5.22;1.33;;;15.90;99.90;;;;;;7389771;19;20155;-75
2022/05/29 09:59:19;;;;;;;3.15;1.15;;;15.60;99.90;;;;;;7391331;19;20467;-75
2022/05/29 10:01:49;;;;;;;3.72;1.42;;;15.60;99.90;;;;;;7391108;19;20138;-73
2022/05/29 10:04:37;;;;;;;4.45;1.27;;;15.90;99.90;;;;;;7388244;19;20154;-74
2022/05/29 10:07:21;;;;;;;2.97;1.15;;;16.10;99.90;;;;;;7390005;19;20138;-72
2022/05/29 10:10:36;;;;;;;5.18;1.38;;;15.80;99.90;;;;;;7388662;19;20206;-73
2022/05/29 10:13:03;;;;;;;2.58;1.35;;;15.70;99.90;;;;;;7388973;19;20154;-75
2022/05/29 10:15:28;;;;;;;2.50;1.10;;;15.90;99.90;;;;;;7389879;19;20138;-74
2022/05/29 10:18:00;;;;;;;5.13;1.27;;;16.10;99.90;;;;;;7388990;19;20171;-75
2022/05/29 10:20:44;;;;;;;2.38;1.10;;;16.00;99.90;;;;;;7388258;19;20158;-73
2022/05/29 10:23:34;;;;;;;4.22;1.10;;;15.90;99.90;;;;;;7387314;19;20150;-74
2022/05/29 10:26:31;;;;;;;2.53;1.30;;;15.80;99.90;;;;;;7388477;19;20142;-73
2022/05/29 10:28:57;;;;;;;3.05;1.30;;;15.80;99.90;;;;;;7389145;19;20151;-74
2022/05/29 10:31:34;;;;;;;4.75;1.15;;;15.80;99.90;;;;;;7390536;19;20134;-72
2022/05/29 10:34:06;;;;;;;2.97;1.30;;;15.80;99.90;;;;;;7385691;19;20403;-76
2022/05/29 10:36:32;;;;;;;4.82;1.27;;;15.80;99.90;;;;;;7391040;19;20402;-75
2022/05/29 10:39:11;;;;;;;1.35;0.88;;;15.60;99.90;;;;;;7386417;19;20155;-77
2022/05/29 10:41:41;;;;;;;3.08;1.10;;;15.50;99.90;;;;;;7385777;19;20130;-71
2022/05/29 10:44:14;;;;;;;2.63;0.95;;;15.40;99.90;;;;;;7387288;19;20143;-74
2022/05/29 10:46:55;;;;;;;2.35;1.20;;;15.20;99.90;;;;;;7386687;19;20154;-72
2022/05/29 10:49:33;;;;;;;2.60;1.42;;;15.10;99.90;;;;;;7389749;19;20592;-72
2022/05/29 10:52:21;;;;;;;5.70;1.77;;;15.20;99.90;;;;;;7389960;19;20135;-73
2022/05/29 10:55:24;;;;;;;4.95;1.20;;;15.30;99.90;;;;;;7385152;19;20534;-74
2022/05/29 10:58:14;;;;;;;1.77;1.00;;;15.10;99.90;;;;;;7384522;19;20146;-74
2022/05/29 11:00:47;;;;;;;1.45;1.05;;;15.30;99.90;;;;;;7384761;19;20146;-72
2022/05/29 11:04:00;;;;;;;2.30;1.25;;;15.40;99.90;;;;;;7383904;19;20174;-72
2022/05/29 11:06:57;;;;;;;2.45;1.00;;;14.90;99.90;;;;;;7385148;19;20479;-74
2022/05/29 11:09:57;;;;;;;2.75;1.08;;;14.70;99.90;;;;;;7388076;19;20134;-75
2022/05/29 11:13:02;;;;;;;3.92;1.10;;;14.60;99.90;;;;;;7387183;19;20139;-73
2022/05/29 11:15:49;;;;;;;3.28;1.08;;;15.10;99.90;;;;;;7385621;19;20134;-72
2022/05/29 11:18:42;;;;;;;3.58;0.90;;;15.50;99.90;;;;;;7385374;19;20137;-71
2022/05/29 11:21:39;;;;;;;2.78;1.10;;;15.70;99.90;;;;;;7387470;19;20155;-70
2022/05/29 11:24:20;;;;;;;1.05;0.70;;;15.80;99.90;;;;;;7388024;19;20123;-74
2022/05/29 11:26:46;;;;;;;2.17;0.93;;;16.20;99.90;;;;;;7387486;19;20147;-71
2022/05/29 11:29:33;;;;;;;1.77;0.85;;;16.00;99.90;;;;;;7387905;19;20150;-71
2022/05/29 11:32:23;;;;;;;1.80;0.90;;;15.80;99.90;;;;;;7384663;19;20139;-73
2022/05/29 11:35:01;;;;;;;4.35;0.95;;;15.90;99.90;;;;;;7386067;19;20152;-71
2022/05/29 11:37:48;;;;;;;3.92;1.00;;;16.00;99.90;;;;;;7383532;19;20165;-70
2022/05/29 11:40:22;;;;;;;1.38;0.80;;;16.30;99.90;;;;;;7383214;19;20251;-71
2022/05/29 11:42:55;;;;;;;1.67;1.00;;;16.20;99.90;;;;;;7385429;19;20130;-72
2022/05/29 11:51:07;;;;;;;1.63;0.80;;;16.20;99.90;;;;;;7384393;19;20654;-73
2022/05/29 11:51:08;;;;;;;1.50;0.60;;;15.90;99.90;;;;;;7384264;19;20130;-74
2022/05/29 11:53:36;;;;;;;1.98;0.77;;;16.00;99.90;;;;;;7384718;19;20657;-75
2022/05/29 11:56:10;;;;;;;1.50;0.80;;;16.10;99.90;;;;;;7383340;19;20594;-72
2022/05/29 11:58:44;;;;;;;2.88;0.73;;;16.10;99.90;;;;;;7384170;19;20143;-73
2022/05/29 12:01:37;;;;;;;2.05;0.95;;;16.30;99.90;;;;;;7383136;19;20138;-72
2022/05/29 12:04:28;;;;;;;2.92;0.98;;;16.40;99.90;;;;;;7387469;19;20146;-71
2022/05/29 12:07:19;;;;;;;2.67;0.88;;;16.10;99.50;;;;;;7393619;19;20127;-73
2022/05/29 12:10:01;;;;;;;1.88;1.00;;;16.10;99.90;;;;;;7398771;19;20150;-76
2022/05/29 12:12:43;;;;;;;4.28;0.90;;;16.10;99.90;;;;;;7394810;19;20153;-77
2022/05/29 12:15:20;;;;;;;3.65;1.15;;;16.10;99.90;;;;;;7396707;19;20153;-78
2022/05/29 12:18:06;;;;;;;1.98;1.25;;;16.20;99.90;;;;;;7389224;19;20181;-72
2022/05/29 12:20:44;;;;;;;2.85;1.08;;;16.40;99.90;;;;;;7394532;19;20166;-74
2022/05/29 12:23:25;;;;;;;2.50;1.00;;;15.70;99.90;;;;;;7397026;19;20462;-73
2022/05/29 12:26:35;;;;;;;1.42;1.05;;;16.00;99.90;;;;;;7396152;19;20138;-74
2022/05/29 12:29:00;;;;;;;2.15;1.17;;;16.10;99.90;;;;;;7389230;19;20150;-77
2022/05/29 12:31:30;;;;;;;2.70;1.15;;;16.10;99.90;;;;;;7390222;19;20517;-72
2022/05/29 12:33:56;;;;;;;3.63;1.10;;;16.10;99.90;;;;;;7392427;19;20193;-74
2022/05/29 12:36:41;;;;;;;2.53;1.10;;;15.90;99.90;;;;;;7392107;19;20131;-73
2022/05/29 12:39:45;;;;;;;3.25;1.50;;;15.70;99.90;;;;;;7397139;19;20478;-73
2022/05/29 12:42:20;;;;;;;1.55;0.90;;;15.90;99.90;;;;;;7394079;19;20146;-78
2022/05/29 12:45:05;;;;;;;2.17;1.05;;;15.90;99.90;;;;;;7394365;19;20467;-78
2022/05/29 12:48:06;;;;;;;2.72;1.00;;;16.00;99.90;;;;;;7392230;19;20213;-77
2022/05/29 12:51:09;;;;;;;2.72;1.02;;;16.20;99.90;;;;;;7390702;19;20173;-72
2022/05/29 12:54:13;;;;;;;2.08;0.73;;;16.10;99.90;;;;;;7391346;19;20134;-74
2022/05/29 12:57:12;;;;;;;1.77;1.20;;;15.90;99.90;;;;;;7393541;19;20506;-73
2022/05/29 12:59:57;;;;;;;1.30;0.60;;;15.80;99.90;;;;;;7392925;19;20153;-79
2022/05/29 13:02:44;;;;;;;4.25;1.02;;;15.70;99.90;;;;;;7394969;19;20147;-73
2022/05/29 13:05:25;;;;;;;1.75;0.95;;;15.90;99.90;;;;;;7393778;19;20157;-75
2022/05/29 13:08:15;;;;;;;0.82;0.70;;;15.80;99.90;;;;;;7392466;19;20179;-72
2022/05/29 13:10:43;;;;;;;2.35;1.00;;;16.00;99.90;;;;;;7398314;19;20126;-77
2022/05/29 13:13:13;;;;;;;1.23;0.80;;;15.90;99.90;;;;;;7393934;19;20142;-78
2022/05/29 13:15:41;;;;;;;1.60;0.70;;;16.20;99.90;;;;;;7393629;19;20154;-78
2022/05/29 13:21:13;;;;;;;2.72;0.85;;;16.40;99.90;;;;;;7390544;19;20222;-76
2022/05/29 13:23:51;;;;;;;1.00;0.70;;;16.70;99.90;;;;;;7393924;19;20138;-76
2022/05/29 13:26:37;;;;;;;2.70;0.90;;;16.80;99.90;;;;;;7392906;19;20254;-73
2022/05/29 13:29:07;;;;;;;1.42;0.80;;;16.90;99.90;;;;;;7394322;19;20157;-77
2022/05/29 13:32:12;;;;;;;1.90;0.80;;;16.90;99.90;;;;;;7394535;19;20625;-76
2022/05/29 13:34:38;;;;;;;1.23;0.75;;;17.00;99.50;;;;;;7392299;19;20481;-78
2022/05/29 13:37:06;;;;;;;1.98;0.90;;;16.80;99.80;;;;;;7389400;19;20482;-74
2022/05/29 13:39:33;;;;;;;3.35;1.25;;;16.80;99.20;;;;;;7391111;19;20194;-77
2022/05/29 13:42:03;;;;;;;2.20;0.70;;;16.90;99.00;;;;;;7389632;19;20188;-73
2022/05/29 13:44:34;;;;;;;0.90;0.65;;;16.90;99.40;;;;;;7389701;19;20614;-72
2022/05/29 13:47:18;;;;;;;2.55;0.85;;;16.50;99.90;;;;;;7388696;19;20236;-76
2022/05/29 13:50:08;;;;;;;2.90;0.90;;;16.70;99.20;;;;;;7389169;19;20161;-73
2022/05/29 13:52:52;;;;;;;1.05;0.75;;;16.70;99.90;;;;;;7385101;19;20162;-76
2022/05/29 13:55:46;;;;;;;1.52;0.70;;;16.50;99.90;;;;;;7385645;19;20720;-74
2022/05/29 14:04:33;;;;;;;2.55;0.70;;;16.70;99.10;;;;;;7387638;19;20626;-76
2022/05/29 14:07:08;;;;;;;1.40;0.80;;;16.70;98.50;;;;;;7385522;19;20499;-76
2022/05/29 14:09:33;;;;;;;2.40;0.93;;;16.50;99.30;;;;;;7390487;19;20141;-75
2022/05/29 14:12:03;;;;;;;1.88;0.80;;;16.30;99.50;;;;;;7392492;19;20146;-73